| time (UTC) | temp C | wind direction | speed KPH | gust KPH | rain 1hr cm | rain 24hr cm | rain mn cm | humidity % | barometer mb |
| 20260507164644 | 12 | 349 | 1.6 | 11.3 | 0.00 | 0.08 | 0.08 | 76 | 1012.7 |
| 20260507164409 | 12 | 349 | 3.2 | 14.5 | 0.00 | 0.08 | 0.08 | 76 | 1012.9 |
| 20260507163410 | 12 | 349 | 3.2 | 14.5 | 0.00 | 0.08 | 0.08 | 78 | 1012.7 |
| 20260507162626 | 12 | 349 | 1.6 | 14.5 | 0.00 | 0.08 | 0.08 | 77 | 1012.9 |
| 20260507162114 | 12 | 349 | 3.2 | 12.9 | 0.00 | 0.08 | 0.08 | 78 | 1012.9 |
| 20260507161608 | 12 | 349 | 3.2 | 12.9 | 0.00 | 0.08 | 0.08 | 77 | 1013.1 |
| 20260507161102 | 12 | 349 | 3.2 | 12.9 | 0.00 | 0.08 | 0.08 | 78 | 1013.1 |
| 20260507160603 | 12 | 349 | 4.8 | 12.9 | 0.00 | 0.08 | 0.08 | 78 | 1013.3 |
| 20260507160050 | 12 | 349 | 4.8 | 17.7 | 0.00 | 0.08 | 0.08 | 78 | 1013.1 |
| 20260507155544 | 12 | 349 | 4.8 | 17.7 | 0.00 | 0.08 | 0.08 | 77 | 1013.1 |
| 20260507155039 | 12 | 349 | 4.8 | 17.7 | 0.00 | 0.08 | 0.08 | 78 | 1013.0 |
| 20260507154803 | 12 | 349 | 6.4 | 17.7 | 0.00 | 0.08 | 0.08 | 78 | 1012.9 |
| 20260507154026 | 12 | 349 | 6.4 | 17.7 | 0.00 | 0.08 | 0.08 | 78 | 1012.7 |
| 20260507153520 | 12 | 349 | 6.4 | 17.7 | 0.00 | 0.08 | 0.08 | 78 | 1012.9 |
| 20260507153014 | 12 | 349 | 4.8 | 12.9 | 0.00 | 0.10 | 0.08 | 79 | 1012.8 |
| 20260507152516 | 12 | 349 | 6.4 | 22.5 | 0.00 | 0.10 | 0.08 | 79 | 1012.6 |
| 20260507152016 | 12 | 349 | 4.8 | 22.5 | 0.00 | 0.10 | 0.08 | 81 | 1012.7 |
| 20260507151510 | 12 | 349 | 3.2 | 9.7 | 0.00 | 0.10 | 0.08 | 86 | 1012.8 |
| 20260507151010 | 12 | 349 | 3.2 | 9.7 | 0.00 | 0.10 | 0.08 | 85 | 1012.8 |
| 20260507150511 | 12 | 349 | 3.2 | 8.0 | 0.00 | 0.10 | 0.08 | 85 | 1012.7 |
| 20260507150009 | 12 | 349 | 3.2 | 8.0 | 0.00 | 0.10 | 0.08 | 86 | 1012.9 |
| 20260507145516 | 12 | 349 | 3.2 | 9.7 | 0.00 | 0.10 | 0.08 | 85 | 1012.8 |
| 20260507145008 | 12 | 349 | 3.2 | 11.3 | 0.00 | 0.10 | 0.08 | 85 | 1012.8 |
| 20260507144506 | 12 | 349 | 3.2 | 11.3 | 0.00 | 0.13 | 0.08 | 84 | 1012.7 |
| 20260507144006 | 12 | 349 | 3.2 | 11.3 | 0.00 | 0.13 | 0.08 | 84 | 1012.8 |
| 20260507143507 | 12 | 349 | 3.2 | 9.7 | 0.00 | 0.13 | 0.08 | 84 | 1012.9 |
| 20260507143006 | 13 | 349 | 1.6 | 8.0 | 0.00 | 0.13 | 0.08 | 83 | 1013.0 |
| 20260507142005 | 13 | 349 | 3.2 | 8.0 | 0.00 | 0.13 | 0.08 | 82 | 1013.0 |
| 20260507141502 | 13 | 349 | 3.2 | 8.0 | 0.00 | 0.13 | 0.08 | 81 | 1012.7 |
| 20260507141003 | 13 | 350 | 3.2 | 9.7 | 0.00 | 0.13 | 0.08 | 81 | 1012.8 |
| 20260507140502 | 13 | 349 | 4.8 | 9.7 | 0.00 | 0.13 | 0.08 | 81 | 1012.9 |
| 20260507140000 | 13 | 349 | 4.8 | 11.3 | 0.00 | 0.13 | 0.08 | 81 | 1012.8 |
| 20260507135459 | 13 | 349 | 3.2 | 11.3 | 0.00 | 0.13 | 0.08 | 80 | 1012.9 |
| 20260507134959 | 13 | 349 | 3.2 | 11.3 | 0.00 | 0.13 | 0.08 | 81 | 1012.8 |
| 20260507134458 | 13 | 349 | 3.2 | 12.9 | 0.00 | 0.13 | 0.08 | 81 | 1012.9 |
| 20260507133956 | 13 | 349 | 4.8 | 12.9 | 0.00 | 0.18 | 0.08 | 81 | 1013.0 |
| 20260507133456 | 13 | 349 | 3.2 | 11.3 | 0.00 | 0.20 | 0.08 | 81 | 1012.9 |
| 20260507132956 | 13 | 349 | 1.6 | 6.4 | 0.00 | 0.20 | 0.08 | 82 | 1013.1 |
| 20260507132454 | 13 | 349 | 3.2 | 8.0 | 0.00 | 0.20 | 0.08 | 81 | 1012.9 |
| 20260507131954 | 13 | 349 | 3.2 | 9.7 | 0.00 | 0.23 | 0.08 | 82 | 1013.0 |
| 20260507131454 | 13 | 349 | 4.8 | 11.3 | 0.00 | 0.23 | 0.08 | 81 | 1012.9 |
| 20260507130954 | 13 | 349 | 4.8 | 12.9 | 0.00 | 0.25 | 0.08 | 81 | 1012.9 |
| 20260507130454 | 13 | 349 | 4.8 | 14.5 | 0.00 | 0.28 | 0.08 | 81 | 1012.7 |
| 20260507125955 | 13 | 349 | 4.8 | 14.5 | 0.00 | 0.28 | 0.08 | 81 | 1012.6 |
| 20260507125454 | 13 | 349 | 4.8 | 12.9 | 0.00 | 0.28 | 0.08 | 82 | 1012.2 |
| 20260507124955 | 13 | 349 | 4.8 | 12.9 | 0.00 | 0.28 | 0.08 | 83 | 1012.3 |
| 20260507124454 | 13 | 349 | 3.2 | 9.7 | 0.00 | 0.28 | 0.08 | 83 | 1012.6 |
| 20260507123454 | 13 | 349 | 4.8 | 14.5 | 0.00 | 0.28 | 0.08 | 83 | 1012.2 |
| 20260507122953 | 13 | 349 | 3.2 | 14.5 | 0.00 | 0.28 | 0.08 | 83 | 1012.4 |
| 20260507122454 | 13 | 349 | 1.6 | 6.4 | 0.00 | 0.28 | 0.08 | 86 | 1012.5 |
| 20260507121954 | 12 | 349 | 3.2 | 6.4 | 0.00 | 0.28 | 0.08 | 85 | 1012.6 |
| 20260507121454 | 12 | 349 | 3.2 | 8.0 | 0.00 | 0.28 | 0.08 | 85 | 1012.7 |
| 20260507121225 | 12 | 349 | 3.2 | 8.0 | 0.00 | 0.28 | 0.08 | 85 | 1012.7 |
| 20260507120453 | 12 | 349 | 3.2 | 11.3 | 0.00 | 0.28 | 0.08 | 84 | 1012.7 |
| 20260507115954 | 12 | 349 | 3.2 | 11.3 | 0.00 | 0.28 | 0.08 | 84 | 1012.6 |
| 20260507115455 | 12 | 349 | 1.6 | 6.4 | 0.00 | 0.28 | 0.08 | 84 | 1012.4 |
| 20260507114952 | 12 | 349 | 1.6 | 8.0 | 0.00 | 0.28 | 0.08 | 84 | 1012.6 |
| 20260507114452 | 12 | 349 | 1.6 | 8.0 | 0.00 | 0.28 | 0.08 | 84 | 1012.4 |
| 20260507113953 | 12 | 349 | 3.2 | 11.3 | 0.00 | 0.28 | 0.08 | 84 | 1012.6 |
| 20260507113452 | 12 | 349 | 3.2 | 11.3 | 0.00 | 0.28 | 0.08 | 85 | 1012.4 |
| 20260507112952 | 12 | 349 | 3.2 | 8.0 | 0.00 | 0.28 | 0.08 | 85 | 1012.4 |
| 20260507112453 | 12 | 349 | 3.2 | 8.0 | 0.00 | 0.28 | 0.08 | 85 | 1012.6 |
| 20260507111953 | 12 | 349 | 3.2 | 11.3 | 0.00 | 0.28 | 0.08 | 85 | 1012.6 |
| 20260507111452 | 13 | 349 | 3.2 | 11.3 | 0.00 | 0.28 | 0.08 | 86 | 1012.3 |
| 20260507110952 | 13 | 349 | 3.2 | 12.9 | 0.00 | 0.28 | 0.08 | 86 | 1012.3 |
| 20260507110453 | 13 | 349 | 3.2 | 12.9 | 0.00 | 0.28 | 0.08 | 86 | 1012.3 |
| 20260507105951 | 13 | 349 | 3.2 | 12.9 | 0.00 | 0.28 | 0.08 | 87 | 1012.3 |
| 20260507105450 | 13 | 349 | 3.2 | 11.3 | 0.00 | 0.28 | 0.08 | 88 | 1012.1 |
| 20260507104950 | 13 | 349 | 3.2 | 11.3 | 0.00 | 0.28 | 0.08 | 88 | 1011.6 |
| 20260507104451 | 13 | 349 | 3.2 | 11.3 | 0.00 | 0.28 | 0.08 | 88 | 1012.0 |
| 20260507104220 | 13 | 349 | 3.2 | 9.7 | 0.00 | 0.28 | 0.08 | 89 | 1011.7 |
| 20260507103448 | 14 | 349 | 3.2 | 12.9 | 0.00 | 0.28 | 0.08 | 89 | 1011.9 |
| 20260507102944 | 14 | 349 | 4.8 | 22.5 | 0.00 | 0.28 | 0.08 | 89 | 1011.4 |
| 20260507102445 | 15 | 349 | 4.8 | 22.5 | 0.00 | 0.28 | 0.08 | 89 | 1011.2 |
| 20260507102214 | 15 | 349 | 3.2 | 12.9 | 0.00 | 0.28 | 0.08 | 90 | 1011.3 |
| 20260507101442 | 16 | 350 | 3.2 | 9.7 | 0.00 | 0.28 | 0.08 | 91 | 1011.2 |
| 20260507100942 | 16 | 349 | 3.2 | 8.0 | 0.00 | 0.28 | 0.08 | 91 | 1011.0 |
| 20260507100713 | 16 | 349 | 3.2 | 12.9 | 0.00 | 0.28 | 0.08 | 91 | 1010.8 |
| 20260507095942 | 16 | 349 | 3.2 | 12.9 | 0.00 | 0.28 | 0.08 | 91 | 1010.6 |
| 20260507095441 | 17 | 349 | 1.6 | 6.4 | 0.00 | 0.28 | 0.08 | 92 | 1010.6 |
| 20260507094935 | 17 | 349 | 3.2 | 9.7 | 0.00 | 0.28 | 0.08 | 92 | 1010.7 |
| 20260507094428 | 17 | 349 | 3.2 | 9.7 | 0.00 | 0.28 | 0.08 | 92 | 1010.8 |
| 20260507093923 | 17 | 349 | 1.6 | 6.4 | 0.00 | 0.28 | 0.08 | 92 | 1010.9 |
| 20260507093417 | 17 | 349 | 3.2 | 9.7 | 0.00 | 0.28 | 0.08 | 92 | 1011.0 |
| 20260507092911 | 17 | 349 | 1.6 | 9.7 | 0.03 | 0.28 | 0.08 | 92 | 1011.0 |
| 20260507092405 | 17 | 349 | 0.0 | 3.2 | 0.03 | 0.28 | 0.08 | 92 | 1011.0 |
| 20260507091859 | 17 | 349 | 0.0 | 1.6 | 0.03 | 0.28 | 0.08 | 92 | 1010.6 |
| 20260507091353 | 17 | 349 | 0.0 | 1.6 | 0.03 | 0.28 | 0.08 | 92 | 1010.5 |
| 20260507090847 | 17 | 349 | 0.0 | 0.0 | 0.03 | 0.28 | 0.08 | 92 | 1010.8 |
| 20260507090342 | 17 | 349 | 0.0 | 0.0 | 0.03 | 0.28 | 0.08 | 92 | 1010.8 |
| 20260507085835 | 17 | 349 | 0.0 | 0.0 | 0.03 | 0.28 | 0.08 | 92 | 1010.9 |
| 20260507085329 | 17 | 349 | 0.0 | 1.6 | 0.03 | 0.28 | 0.08 | 92 | 1010.7 |
| 20260507084823 | 17 | 349 | 0.0 | 1.6 | 0.03 | 0.28 | 0.08 | 92 | 1010.7 |
| 20260507084316 | 17 | 349 | 0.0 | 0.0 | 0.05 | 0.28 | 0.08 | 92 | 1010.5 |
| 20260507083811 | 17 | 349 | 0.0 | 0.0 | 0.05 | 0.28 | 0.08 | 92 | 1010.6 |
| 20260507083305 | 17 | 349 | 0.0 | 0.0 | 0.05 | 0.28 | 0.08 | 92 | 1010.7 |
| 20260507082759 | 17 | 350 | 0.0 | 0.0 | 0.03 | 0.25 | 0.05 | 92 | 1010.7 |
| 20260507082524 | 17 | 349 | 0.0 | 0.0 | 0.03 | 0.25 | 0.05 | 92 | 1010.6 |
| 20260507082018 | 17 | 349 | 0.0 | 0.0 | 0.03 | 0.25 | 0.05 | 91 | 1010.9 |
| 20260507081241 | 17 | 349 | 0.0 | 0.0 | 0.03 | 0.25 | 0.05 | 91 | 1010.8 |
| 20260507080735 | 17 | 349 | 0.0 | 0.0 | 0.03 | 0.25 | 0.05 | 91 | 1010.9 |
| 20260507080228 | 17 | 349 | 0.0 | 0.0 | 0.03 | 0.25 | 0.05 | 91 | 1010.7 |
| 20260507075723 | 17 | 349 | 0.0 | 0.0 | 0.03 | 0.25 | 0.05 | 91 | 1010.4 |
| 20260507075217 | 17 | 349 | 0.0 | 0.0 | 0.03 | 0.25 | 0.05 | 91 | 1010.5 |
| 20260507074711 | 17 | 349 | 0.0 | 0.0 | 0.00 | 0.23 | 0.05 | 91 | 1010.7 |
| 20260507074205 | 17 | 349 | 0.0 | 0.0 | 0.00 | 0.23 | 0.03 | 91 | 1010.9 |
| 20260507073931 | 17 | 349 | 0.0 | 0.0 | 0.00 | 0.23 | 0.03 | 91 | 1010.9 |
| 20260507073153 | 17 | 349 | 0.0 | 0.0 | 0.00 | 0.23 | 0.03 | 91 | 1010.6 |
| 20260507072647 | 17 | 349 | 0.0 | 0.0 | 0.00 | 0.23 | 0.03 | 91 | 1010.2 |
| 20260507072141 | 17 | 349 | 0.0 | 1.6 | 0.00 | 0.23 | 0.03 | 91 | 1010.0 |
| 20260507071635 | 18 | 349 | 0.0 | 1.6 | 0.00 | 0.23 | 0.03 | 91 | 1009.8 |
| 20260507071129 | 18 | 349 | 0.0 | 1.6 | 0.00 | 0.23 | 0.03 | 91 | 1010.1 |
| 20260507070623 | 18 | 349 | 0.0 | 1.6 | 0.00 | 0.23 | 0.03 | 90 | 1010.2 |
| 20260507070117 | 18 | 349 | 0.0 | 1.6 | 0.03 | 0.23 | 0.03 | 90 | 1010.1 |
| 20260507065611 | 18 | 349 | 0.0 | 1.6 | 0.03 | 0.23 | 0.03 | 90 | 1010.2 |
| 20260507065105 | 18 | 349 | 0.0 | 6.4 | 0.03 | 0.23 | 0.03 | 90 | 1010.3 |
| 20260507064559 | 18 | 349 | 0.0 | 6.4 | 0.03 | 0.23 | 0.03 | 90 | 1010.4 |
| 20260507064054 | 18 | 349 | 0.0 | 6.4 | 0.03 | 0.23 | 0.03 | 90 | 1010.3 |
| 20260507063546 | 18 | 349 | 0.0 | 4.8 | 0.03 | 0.23 | 0.03 | 90 | 1010.1 |
| 20260507063041 | 18 | 349 | 1.6 | 9.7 | 0.03 | 0.23 | 0.03 | 89 | 1010.1 |
| 20260507062535 | 18 | 349 | 0.0 | 9.7 | 0.03 | 0.23 | 0.03 | 89 | 1010.0 |
| 20260507062029 | 18 | 349 | 1.6 | 4.8 | 0.03 | 0.23 | 0.03 | 89 | 1010.1 |
| 20260507061523 | 18 | 349 | 1.6 | 4.8 | 0.03 | 0.23 | 0.03 | 89 | 1010.2 |
| 20260507061018 | 18 | 349 | 0.0 | 4.8 | 0.03 | 0.23 | 0.03 | 89 | 1010.4 |
| 20260507060742 | 18 | 350 | 1.6 | 4.8 | 0.00 | 0.20 | 0.00 | 89 | 1010.2 |
| 20260507060005 | 18 | 349 | 1.6 | 4.8 | 0.00 | 0.20 | 0.00 | 88 | 1010.2 |
| 20260507055729 | 18 | 349 | 0.0 | 4.8 | 0.00 | 0.20 | 0.00 | 88 | 1010.3 |
| 20260507054953 | 18 | 349 | 0.0 | 3.2 | 0.00 | 0.20 | 0.00 | 88 | 1010.3 |
| 20260507054447 | 18 | 349 | 0.0 | 1.6 | 0.00 | 0.20 | 0.00 | 87 | 1010.2 |
| 20260507053942 | 18 | 349 | 0.0 | 4.8 | 0.00 | 0.20 | 0.00 | 87 | 1010.2 |
| 20260507053201 | 18 | 349 | 0.0 | 4.8 | 0.00 | 0.20 | 0.00 | 87 | 1010.1 |
| 20260507052423 | 18 | 349 | 0.0 | 3.2 | 0.00 | 0.20 | 0.00 | 87 | 1010.1 |
| 20260507051918 | 18 | 349 | 0.0 | 4.8 | 0.00 | 0.20 | 0.00 | 87 | 1009.9 |
| 20260507051411 | 18 | 349 | 0.0 | 4.8 | 0.00 | 0.20 | 0.00 | 87 | 1010.1 |
| 20260507050905 | 18 | 349 | 0.0 | 3.2 | 0.00 | 0.20 | 0.00 | 87 | 1010.0 |
| 20260507050400 | 18 | 349 | 0.0 | 3.2 | 0.00 | 0.20 | 0.00 | 87 | 1010.2 |
| 20260507045859 | 18 | 349 | 0.0 | 6.4 | 0.00 | 0.20 | 0.00 | 86 | 1010.4 |
| 20260507045359 | 19 | 349 | 0.0 | 6.4 | 0.00 | 0.20 | 0.00 | 86 | 1010.6 |
| 20260507044859 | 19 | 349 | 0.0 | 6.4 | 0.00 | 0.20 | 0.00 | 86 | 1010.5 |
| 20260507043857 | 19 | 349 | 1.6 | 8.0 | 0.00 | 0.20 | 0.00 | 86 | 1011.1 |
| 20260507043355 | 19 | 349 | 0.0 | 4.8 | 0.00 | 0.20 | 0.00 | 86 | 1011.4 |
| 20260507042855 | 19 | 349 | 0.0 | 6.4 | 0.00 | 0.20 | 0.00 | 86 | 1011.8 |
| 20260507042355 | 19 | 349 | 0.0 | 6.4 | 0.00 | 0.20 | 0.00 | 85 | 1011.8 |
| 20260507041856 | 19 | 349 | 0.0 | 6.4 | 0.00 | 0.20 | 0.00 | 85 | 1011.7 |
| 20260507041355 | 19 | 349 | 1.6 | 6.4 | 0.00 | 0.20 | 0.00 | 85 | 1011.6 |
| 20260507040853 | 19 | 349 | 0.0 | 6.4 | 0.00 | 0.20 | 0.00 | 84 | 1011.6 |
| 20260507040353 | 19 | 349 | 0.0 | 6.4 | 0.00 | 0.20 | 0.00 | 84 | 1011.7 |
| 20260507035854 | 20 | 349 | 0.0 | 6.4 | 0.00 | 0.20 | 0.20 | 83 | 1011.7 |
| 20260507035350 | 20 | 349 | 0.0 | 8.0 | 0.00 | 0.20 | 0.20 | 83 | 1011.9 |
| 20260507034848 | 20 | 349 | 0.0 | 8.0 | 0.00 | 0.20 | 0.20 | 83 | 1011.8 |
| 20260507034347 | 19 | 349 | 0.0 | 8.0 | 0.00 | 0.20 | 0.20 | 83 | 1011.5 |
| 20260507033839 | 19 | 349 | 0.0 | 8.0 | 0.00 | 0.20 | 0.20 | 83 | 1010.7 |
| 20260507032551 | 20 | 349 | 1.6 | 9.7 | 0.00 | 0.20 | 0.20 | 83 | 1011.3 |
| 20260507031815 | 20 | 349 | 0.0 | 9.7 | 0.00 | 0.20 | 0.20 | 83 | 1011.5 |
| 20260507031310 | 20 | 349 | 0.0 | 3.2 | 0.00 | 0.20 | 0.20 | 82 | 1011.7 |
| 20260507030812 | 20 | 349 | 0.0 | 9.7 | 0.00 | 0.20 | 0.20 | 82 | 1011.5 |
| 20260507030257 | 20 | 349 | 0.0 | 9.7 | 0.00 | 0.20 | 0.20 | 82 | 1011.3 |
| 20260507030021 | 20 | 349 | 0.0 | 12.9 | 0.00 | 0.20 | 0.20 | 82 | 1010.9 |
| 20260507025515 | 20 | 350 | 1.6 | 12.9 | 0.00 | 0.20 | 0.20 | 82 | 1010.9 |
| 20260507025009 | 20 | 349 | 1.6 | 6.4 | 0.00 | 0.20 | 0.20 | 82 | 1010.8 |
| 20260507024233 | 20 | 349 | 1.6 | 8.0 | 0.00 | 0.20 | 0.20 | 83 | 1010.5 |
| 20260507023727 | 20 | 350 | 1.6 | 11.3 | 0.00 | 0.20 | 0.20 | 83 | 1010.4 |
| 20260507023221 | 19 | 349 | 0.0 | 6.4 | 0.00 | 0.20 | 0.20 | 83 | 1010.4 |
| 20260507022715 | 19 | 349 | 1.6 | 11.3 | 0.00 | 0.20 | 0.20 | 83 | 1010.4 |
| 20260507022209 | 19 | 349 | 1.6 | 11.3 | 0.00 | 0.20 | 0.20 | 83 | 1010.4 |
| 20260507021703 | 19 | 349 | 1.6 | 9.7 | 0.00 | 0.20 | 0.20 | 83 | 1010.4 |
| 20260507021158 | 19 | 349 | 1.6 | 9.7 | 0.00 | 0.20 | 0.20 | 84 | 1010.5 |
| 20260507020650 | 19 | 349 | 1.6 | 6.4 | 0.00 | 0.20 | 0.20 | 84 | 1010.7 |
| 20260507020151 | 19 | 349 | 1.6 | 4.8 | 0.00 | 0.20 | 0.20 | 84 | 1010.8 |
| 20260507015909 | 19 | 349 | 1.6 | 9.7 | 0.00 | 0.20 | 0.20 | 84 | 1010.9 |
| 20260507015134 | 19 | 349 | 1.6 | 9.7 | 0.00 | 0.20 | 0.20 | 85 | 1010.9 |
| 20260507014628 | 19 | 349 | 1.6 | 4.8 | 0.00 | 0.20 | 0.20 | 85 | 1011.0 |
| 20260507014122 | 19 | 349 | 0.0 | 4.8 | 0.00 | 0.20 | 0.20 | 85 | 1011.0 |
| 20260507013615 | 18 | 349 | 0.0 | 1.6 | 0.00 | 0.20 | 0.20 | 85 | 1011.1 |
| 20260507013109 | 18 | 349 | 0.0 | 1.6 | 0.00 | 0.20 | 0.20 | 85 | 1011.3 |
| 20260507012057 | 18 | 350 | 0.0 | 1.6 | 0.00 | 0.20 | 0.20 | 85 | 1011.4 |
| 20260507011551 | 18 | 349 | 0.0 | 1.6 | 0.00 | 0.20 | 0.20 | 85 | 1011.1 |
| 20260507011045 | 18 | 349 | 0.0 | 1.6 | 0.00 | 0.20 | 0.20 | 85 | 1011.0 |
| 20260507010539 | 18 | 349 | 0.0 | 0.0 | 0.00 | 0.20 | 0.20 | 84 | 1011.0 |
| 20260507010035 | 19 | 349 | 0.0 | 0.0 | 0.00 | 0.20 | 0.20 | 84 | 1011.1 |
| 20260507005527 | 19 | 349 | 0.0 | 1.6 | 0.00 | 0.20 | 0.20 | 84 | 1011.0 |
| 20260507005021 | 19 | 349 | 0.0 | 3.2 | 0.00 | 0.20 | 0.20 | 84 | 1010.9 |
| 20260507004515 | 19 | 349 | 0.0 | 3.2 | 0.00 | 0.20 | 0.20 | 83 | 1010.9 |
| 20260507004010 | 19 | 349 | 0.0 | 0.0 | 0.00 | 0.20 | 0.20 | 83 | 1010.7 |
| 20260507003503 | 19 | 349 | 0.0 | 0.0 | 0.00 | 0.20 | 0.20 | 82 | 1010.7 |
| 20260507002957 | 19 | 349 | 0.0 | 1.6 | 0.00 | 0.20 | 0.20 | 82 | 1010.6 |
| 20260507002452 | 20 | 349 | 0.0 | 1.6 | 0.00 | 0.20 | 0.20 | 82 | 1010.6 |
| 20260507001945 | 20 | 349 | 0.0 | 1.6 | 0.00 | 0.20 | 0.20 | 81 | 1010.7 |
| 20260507001439 | 20 | 349 | 0.0 | 3.2 | 0.00 | 0.20 | 0.20 | 81 | 1010.8 |
| 20260507001206 | 20 | 349 | 0.0 | 8.0 | 0.00 | 0.20 | 0.20 | 81 | 1010.9 |
| 20260507000427 | 20 | 349 | 0.0 | 8.0 | 0.00 | 0.20 | 0.20 | 80 | 1011.1 |
| 20260506235921 | 20 | 349 | 0.0 | 6.4 | 0.00 | 0.20 | 0.20 | 80 | 1010.9 |
| 20260506235415 | 20 | 349 | 0.0 | 6.4 | 0.00 | 0.20 | 0.20 | 80 | 1010.9 |
| 20260506234909 | 20 | 349 | 0.0 | 6.4 | 0.00 | 0.20 | 0.20 | 80 | 1011.1 |
| 20260506234403 | 20 | 349 | 0.0 | 1.6 | 0.00 | 0.20 | 0.20 | 79 | 1011.3 |
| 20260506233901 | 20 | 349 | 0.0 | 1.6 | 0.00 | 0.20 | 0.20 | 79 | 1011.1 |
| 20260506233401 | 20 | 349 | 0.0 | 1.6 | 0.00 | 0.20 | 0.20 | 78 | 1011.0 |
| 20260506232900 | 20 | 349 | 0.0 | 8.0 | 0.00 | 0.20 | 0.20 | 78 | 1011.1 |
| 20260506232400 | 21 | 350 | 0.0 | 8.0 | 0.00 | 0.20 | 0.20 | 78 | 1011.1 |
| 20260506231859 | 21 | 349 | 0.0 | 6.4 | 0.00 | 0.20 | 0.20 | 78 | 1010.9 |